createdAt,value
2022-10-17T00:01:57.030Z,3.48
2022-10-17T00:04:23.596Z,3.32
2022-10-17T00:06:50.238Z,3.18
2022-10-17T00:09:16.883Z,3.43
2022-10-17T00:11:43.492Z,3.38
2022-10-17T00:14:10.097Z,3.27
2022-10-17T00:16:37.627Z,3.19
2022-10-17T00:19:05.049Z,3.03
2022-10-17T00:21:31.651Z,3.12
2022-10-17T00:23:59.007Z,3.24
2022-10-17T00:26:28.568Z,3.13
2022-10-17T00:28:55.356Z,3.08
2022-10-17T00:31:22.752Z,2.94
2022-10-17T00:33:49.854Z,2.98
2022-10-17T00:36:21.118Z,3.02
2022-10-17T00:38:50.041Z,2.89
2022-10-17T00:41:17.672Z,2.89
2022-10-17T00:43:52.243Z,2.99
2022-10-17T00:46:19.039Z,3.01
2022-10-17T00:48:46.303Z,3.07
2022-10-17T00:51:12.903Z,3.09
2022-10-17T00:53:40.276Z,3.12
2022-10-17T00:56:07.080Z,3.24
2022-10-17T00:58:33.811Z,3.39
2022-10-17T01:01:01.685Z,3.38
2022-10-17T01:03:28.313Z,3.60
2022-10-17T01:05:55.231Z,3.39
2022-10-17T01:08:21.862Z,3.24
2022-10-17T01:10:54.719Z,3.18
2022-10-17T01:13:44.597Z,3.14
2022-10-17T01:16:18.945Z,3.08
2022-10-17T01:18:48.538Z,3.21
2022-10-17T01:21:35.444Z,3.04
2022-10-17T01:24:20.960Z,3.04
2022-10-17T01:26:50.380Z,2.92
2022-10-17T01:29:32.784Z,2.79
2022-10-17T01:32:02.828Z,2.78
2022-10-17T01:34:29.873Z,2.81
2022-10-17T01:37:00.196Z,2.87
2022-10-17T01:39:47.732Z,2.81
2022-10-17T01:42:28.956Z,2.98
2022-10-17T01:45:10.051Z,3.15
2022-10-17T01:47:38.468Z,3.01
2022-10-17T01:50:13.238Z,3.21
2022-10-17T01:52:45.050Z,3.15
2022-10-17T01:55:14.613Z,3.16
2022-10-17T01:57:43.863Z,2.91
2022-10-17T02:00:14.179Z,2.94
2022-10-17T02:02:43.383Z,2.81
2022-10-17T02:05:10.117Z,2.48
2022-10-17T02:07:36.736Z,2.86
2022-10-17T02:10:10.502Z,2.92
2022-10-17T02:12:43.181Z,2.86
2022-10-17T02:15:21.920Z,2.89
2022-10-17T02:17:57.906Z,2.80
2022-10-17T02:20:30.624Z,2.77
2022-10-17T02:22:57.320Z,2.38
2022-10-17T02:25:31.379Z,2.03
2022-10-17T02:27:57.939Z,2.18
2022-10-17T02:30:27.279Z,2.39
2022-10-17T02:33:13.360Z,2.45
2022-10-17T02:35:43.705Z,2.29
2022-10-17T02:38:12.001Z,1.79
2022-10-17T02:40:39.739Z,2.16
2022-10-17T02:43:06.792Z,1.97
2022-10-17T02:45:36.941Z,1.92
2022-10-17T02:48:07.723Z,2.10
2022-10-17T02:50:42.475Z,1.97
2022-10-17T02:53:11.796Z,2.01
2022-10-17T02:55:41.128Z,2.00
2022-10-17T02:58:13.700Z,2.08
2022-10-17T03:00:41.834Z,2.16
2022-10-17T03:03:34.867Z,2.01
2022-10-17T03:06:01.951Z,2.04
2022-10-17T03:08:28.625Z,2.13
2022-10-17T03:10:56.205Z,1.78
2022-10-17T03:13:23.354Z,1.51
2022-10-17T03:15:50.099Z,1.53
2022-10-17T03:18:17.509Z,1.47
2022-10-17T03:20:45.324Z,1.42
2022-10-17T03:23:11.951Z,1.53
2022-10-17T03:25:38.645Z,1.69
2022-10-17T03:28:05.653Z,1.63
2022-10-17T03:30:33.773Z,1.77
2022-10-17T03:33:00.850Z,1.68
2022-10-17T03:35:27.856Z,1.68
2022-10-17T03:37:57.955Z,1.83
2022-10-17T03:40:26.788Z,2.19
2022-10-17T03:42:54.138Z,1.88
2022-10-17T03:45:21.056Z,1.89
2022-10-17T03:47:48.299Z,1.99
2022-10-17T03:50:15.528Z,2.03
2022-10-17T03:52:46.218Z,2.03
2022-10-17T03:55:13.336Z,2.21
2022-10-17T03:57:42.237Z,2.25
2022-10-17T04:00:12.432Z,2.03
2022-10-17T04:02:41.820Z,1.74
2022-10-17T04:05:13.274Z,1.81
2022-10-17T04:07:40.705Z,1.51
2022-10-17T04:10:08.086Z,1.76
2022-10-17T04:12:35.220Z,1.67
2022-10-17T04:15:01.924Z,1.50
2022-10-17T04:17:34.568Z,1.39
2022-10-17T04:20:05.017Z,1.56
2022-10-17T04:22:31.939Z,1.56
2022-10-17T04:24:59.056Z,1.18
2022-10-17T04:27:32.226Z,1.06
2022-10-17T04:29:58.790Z,1.06
2022-10-17T04:32:26.115Z,1.12
2022-10-17T04:35:22.053Z,1.10
2022-10-17T04:37:54.815Z,1.11
2022-10-17T04:40:21.395Z,1.07
2022-10-17T04:42:50.032Z,0.98
2022-10-17T04:45:20.420Z,0.99
2022-10-17T04:47:50.904Z,0.98
2022-10-17T04:50:17.642Z,1.06
2022-10-17T04:53:02.466Z,1.28
2022-10-17T04:55:29.657Z,1.21
2022-10-17T04:57:56.471Z,1.22
2022-10-17T05:00:23.861Z,1.23
2022-10-17T05:02:59.668Z,1.34
2022-10-17T05:05:27.636Z,1.37
2022-10-17T05:07:55.625Z,1.48
2022-10-17T05:10:25.505Z,1.64
2022-10-17T05:12:53.627Z,1.64
2022-10-17T05:15:23.104Z,1.64
2022-10-17T05:17:54.450Z,1.80
2022-10-17T05:20:21.826Z,2.05
2022-10-17T05:22:48.903Z,2.37
2022-10-17T05:25:15.787Z,2.19
2022-10-17T05:27:42.394Z,2.22
2022-10-17T05:30:09.382Z,2.34
2022-10-17T05:32:38.069Z,2.55
2022-10-17T05:35:05.025Z,2.84
2022-10-17T05:37:32.549Z,2.91
2022-10-17T05:40:00.657Z,3.09
2022-10-17T05:42:29.850Z,3.25
2022-10-17T05:44:57.524Z,3.36
2022-10-17T05:47:26.715Z,3.52
2022-10-17T05:49:53.528Z,3.61
2022-10-17T05:52:28.651Z,3.70
2022-10-17T05:55:06.246Z,3.99
2022-10-17T05:57:33.325Z,4.25
2022-10-17T06:00:00.995Z,4.57
2022-10-17T06:02:29.363Z,4.86
2022-10-17T06:04:56.317Z,4.95
2022-10-17T06:07:23.891Z,5.03
2022-10-17T06:09:50.818Z,5.10
2022-10-17T06:12:17.851Z,5.23
2022-10-17T06:14:46.566Z,5.28
2022-10-17T06:17:16.227Z,5.61
2022-10-17T06:19:44.981Z,5.69
2022-10-17T06:22:14.295Z,5.83
2022-10-17T06:24:41.355Z,6.09
2022-10-17T06:27:11.096Z,6.20
2022-10-17T06:29:40.580Z,6.34
2022-10-17T06:32:09.840Z,6.16
2022-10-17T06:34:40.623Z,6.02
2022-10-17T06:37:07.262Z,6.30
2022-10-17T06:39:36.625Z,6.27
2022-10-17T06:42:11.575Z,6.88
2022-10-17T06:44:54.080Z,6.86
2022-10-17T06:47:43.510Z,6.95
2022-10-17T06:50:27.938Z,7.30
2022-10-17T06:53:13.418Z,7.32
2022-10-17T06:56:01.426Z,7.42
2022-10-17T06:58:55.984Z,8.35
2022-10-17T07:01:46.102Z,7.96
2022-10-17T07:04:14.830Z,7.89
2022-10-17T07:06:41.819Z,8.15
2022-10-17T07:09:15.111Z,8.36
2022-10-17T07:11:42.121Z,8.27
2022-10-17T07:14:08.758Z,8.38
2022-10-17T07:16:35.658Z,8.41
2022-10-17T07:19:08.587Z,8.69
2022-10-17T07:21:39.226Z,8.93
2022-10-17T07:24:07.619Z,8.97
2022-10-17T07:26:34.623Z,8.94
2022-10-17T07:29:03.187Z,9.03
2022-10-17T07:31:48.896Z,9.07
2022-10-17T07:34:20.791Z,9.44
2022-10-17T07:36:47.399Z,9.56
2022-10-17T07:39:15.110Z,9.72
2022-10-17T07:41:42.397Z,9.69
2022-10-17T07:44:09.295Z,9.63
2022-10-17T07:46:42.193Z,9.46
2022-10-17T07:49:08.820Z,9.69
2022-10-17T07:51:35.550Z,10.08
2022-10-17T07:54:02.170Z,10.44
2022-10-17T07:56:32.014Z,10.48
2022-10-17T07:59:03.834Z,10.72
2022-10-17T08:01:33.393Z,10.66
2022-10-17T08:04:00.033Z,10.55
2022-10-17T08:06:26.622Z,10.85
2022-10-17T08:08:53.171Z,11.01
2022-10-17T08:11:19.862Z,11.28
2022-10-17T08:13:46.448Z,11.33
2022-10-17T08:16:14.217Z,11.49
2022-10-17T08:18:41.740Z,11.72
2022-10-17T08:21:09.572Z,12.01
2022-10-17T08:23:37.825Z,12.32
2022-10-17T08:26:05.772Z,12.71
2022-10-17T08:28:34.793Z,12.84
2022-10-17T08:31:06.338Z,12.69
2022-10-17T08:33:33.496Z,12.42
2022-10-17T08:36:00.694Z,12.59
2022-10-17T08:38:30.048Z,12.82
2022-10-17T08:40:59.989Z,13.04
2022-10-17T08:43:35.365Z,12.88
2022-10-17T08:46:04.614Z,12.79
2022-10-17T08:48:33.025Z,13.14
2022-10-17T08:51:03.128Z,13.12
2022-10-17T08:53:42.843Z,13.52
2022-10-17T08:56:43.988Z,14.21
2022-10-17T08:59:14.482Z,14.27
2022-10-17T09:01:53.033Z,14.27
2022-10-17T09:04:22.741Z,14.82
2022-10-17T09:06:49.355Z,14.81
2022-10-17T09:09:15.925Z,15.07
2022-10-17T09:11:56.280Z,15.03
2022-10-17T09:14:43.062Z,15.38
2022-10-17T09:17:16.669Z,15.40
2022-10-17T09:20:10.002Z,15.81
2022-10-17T09:22:43.774Z,16.21
2022-10-17T09:25:12.376Z,16.80
2022-10-17T09:27:41.580Z,16.65
2022-10-17T09:30:39.988Z,16.82
2022-10-17T09:33:28.087Z,16.72
2022-10-17T09:36:02.747Z,16.45
2022-10-17T09:38:34.871Z,17.00
2022-10-17T09:41:02.587Z,17.25
2022-10-17T09:43:29.411Z,17.11
2022-10-17T09:46:02.513Z,16.93
2022-10-17T09:48:29.075Z,17.64
2022-10-17T09:51:08.241Z,18.10
2022-10-17T09:53:45.306Z,18.69
2022-10-17T09:56:13.958Z,19.06
2022-10-17T09:58:41.920Z,19.31
2022-10-17T10:01:22.864Z,19.20
2022-10-17T10:04:09.794Z,19.68
2022-10-17T10:06:36.525Z,19.70
2022-10-17T10:09:05.475Z,19.85
2022-10-17T10:11:48.858Z,20.04
2022-10-17T10:14:28.688Z,20.12
2022-10-17T10:16:55.362Z,20.35
2022-10-17T10:19:21.873Z,20.64
2022-10-17T10:21:55.477Z,20.49
2022-10-17T10:24:25.870Z,20.59
2022-10-17T10:26:58.260Z,20.52
2022-10-17T10:29:30.989Z,20.55
2022-10-17T10:32:16.641Z,20.74
2022-10-17T10:34:55.509Z,21.07
2022-10-17T10:37:24.480Z,21.08
2022-10-17T10:39:52.959Z,21.13
2022-10-17T10:42:24.497Z,21.18
2022-10-17T10:44:51.872Z,20.55
2022-10-17T10:47:24.226Z,20.75
2022-10-17T10:49:52.597Z,20.66
2022-10-17T10:52:27.345Z,21.16
2022-10-17T10:54:57.934Z,21.36
2022-10-17T10:57:27.669Z,21.79
2022-10-17T10:59:58.398Z,22.01
2022-10-17T11:02:31.477Z,22.35
2022-10-17T11:05:01.868Z,22.82
2022-10-17T11:07:39.392Z,22.53
2022-10-17T11:10:09.049Z,22.24
2022-10-17T11:12:39.509Z,21.40
2022-10-17T11:15:09.563Z,21.29
2022-10-17T11:17:36.121Z,21.27
2022-10-17T11:20:07.116Z,21.87
2022-10-17T11:22:54.488Z,22.58
2022-10-17T11:25:38.037Z,22.00
2022-10-17T11:28:11.297Z,22.69
2022-10-17T11:30:42.131Z,23.19
2022-10-17T11:33:10.971Z,23.60
2022-10-17T11:35:39.571Z,24.14
2022-10-17T11:38:26.013Z,23.79
2022-10-17T11:40:55.980Z,23.27
2022-10-17T11:43:31.454Z,23.16
2022-10-17T11:46:19.086Z,23.63
2022-10-17T11:48:56.576Z,24.19
2022-10-17T11:54:24.841Z,21.96
2022-10-17T11:57:04.875Z,21.74
2022-10-17T11:59:50.400Z,22.68
2022-10-17T12:02:40.116Z,23.05
2022-10-17T12:05:19.019Z,23.89
2022-10-17T12:07:51.448Z,24.51
2022-10-17T12:10:18.128Z,24.70
2022-10-17T12:12:47.201Z,25.09
2022-10-17T12:15:13.930Z,25.02
2022-10-17T12:17:44.617Z,24.45
2022-10-17T12:20:21.675Z,25.09
2022-10-17T12:22:49.440Z,24.86
2022-10-17T12:25:21.297Z,24.10
2022-10-17T12:27:48.494Z,23.97
2022-10-17T12:30:18.164Z,24.61
2022-10-17T12:33:07.553Z,25.35
2022-10-17T12:35:36.114Z,25.22
2022-10-17T12:38:19.255Z,25.94
2022-10-17T12:40:50.713Z,26.60
2022-10-17T12:43:17.374Z,25.64
2022-10-17T12:45:48.704Z,24.36
2022-10-17T12:48:33.690Z,24.30
2022-10-17T12:51:34.698Z,24.14
2022-10-17T12:54:00.134Z,24.13
2022-10-17T12:56:48.978Z,24.58
2022-10-17T12:59:17.794Z,25.88
2022-10-17T13:01:46.623Z,26.47
2022-10-17T13:04:13.760Z,25.96
2022-10-17T13:06:45.665Z,25.64
2022-10-17T13:09:26.431Z,26.51
2022-10-17T13:11:53.989Z,27.41
2022-10-17T13:14:21.762Z,28.08
2022-10-17T13:16:53.277Z,29.06
2022-10-17T13:19:23.480Z,29.01
2022-10-17T13:21:51.479Z,29.54
2022-10-17T13:24:30.335Z,29.61
2022-10-17T13:26:57.177Z,28.34
2022-10-17T13:29:25.825Z,28.24
2022-10-17T13:31:54.376Z,28.71
2022-10-17T13:34:23.170Z,28.48
2022-10-17T13:36:54.980Z,29.10
2022-10-17T13:39:38.503Z,28.75
2022-10-17T13:42:23.912Z,28.67
2022-10-17T13:44:50.787Z,29.25
2022-10-17T13:47:24.769Z,29.78
2022-10-17T13:49:55.473Z,28.45
2022-10-17T13:52:28.325Z,27.20
2022-10-17T13:54:55.753Z,27.52
2022-10-17T13:57:30.547Z,25.99
2022-10-17T14:00:02.141Z,27.10
2022-10-17T14:02:40.684Z,27.64
2022-10-17T14:05:21.034Z,28.11
2022-10-17T14:08:12.995Z,29.11
2022-10-17T14:10:42.449Z,29.40
2022-10-17T14:13:17.658Z,28.88
2022-10-17T14:15:45.777Z,28.92
2022-10-17T14:18:24.529Z,28.18
2022-10-17T14:23:41.596Z,28.47
2022-10-17T14:26:10.413Z,27.91
2022-10-17T14:28:37.207Z,28.14
2022-10-17T14:31:33.015Z,28.19
2022-10-17T14:34:01.087Z,28.48
2022-10-17T14:36:32.990Z,28.64
2022-10-17T14:39:00.235Z,27.53
2022-10-17T14:41:42.321Z,28.02
2022-10-17T14:44:16.082Z,28.03
2022-10-17T14:46:48.416Z,27.58
2022-10-17T14:49:24.226Z,27.50
2022-10-17T14:52:15.129Z,28.00
2022-10-17T14:54:48.343Z,27.94
2022-10-17T14:57:19.514Z,28.05
2022-10-17T14:59:55.198Z,27.10
2022-10-17T15:02:23.127Z,26.96
2022-10-17T15:04:49.691Z,26.96
2022-10-17T15:07:17.173Z,24.85
2022-10-17T15:09:44.418Z,24.05
2022-10-17T15:12:15.876Z,23.07
2022-10-17T15:14:43.647Z,23.01
2022-10-17T15:17:15.319Z,23.73
2022-10-17T15:19:42.671Z,21.17
2022-10-17T15:22:09.514Z,17.81
2022-10-17T15:24:36.169Z,17.66
2022-10-17T15:27:02.827Z,18.83
2022-10-17T15:29:29.586Z,18.49
2022-10-17T15:31:56.192Z,17.96
2022-10-17T15:34:22.774Z,17.49
2022-10-17T15:36:50.707Z,17.13
2022-10-17T15:39:17.351Z,16.79
2022-10-17T15:41:44.149Z,16.36
2022-10-17T15:44:10.738Z,16.13
2022-10-17T15:46:39.849Z,15.73
2022-10-17T15:49:08.118Z,15.56
2022-10-17T15:51:34.786Z,15.32
2022-10-17T15:54:01.692Z,14.99
2022-10-17T15:56:35.848Z,14.86
2022-10-17T15:59:04.294Z,14.20
2022-10-17T16:01:31.577Z,14.44
2022-10-17T16:03:58.255Z,14.38
2022-10-17T16:06:25.298Z,14.15
2022-10-17T16:08:52.069Z,14.14
2022-10-17T16:11:42.004Z,14.01
2022-10-17T16:14:12.886Z,13.85
2022-10-17T16:16:39.849Z,13.86
2022-10-17T16:19:06.644Z,13.58
2022-10-17T16:21:34.987Z,13.32
2022-10-17T16:24:01.921Z,13.16
2022-10-17T16:26:28.874Z,12.94
2022-10-17T16:28:57.421Z,12.88
2022-10-17T16:31:24.083Z,13.09
2022-10-17T16:33:53.428Z,13.14
2022-10-17T16:36:20.484Z,13.18
2022-10-17T16:38:47.471Z,13.05
2022-10-17T16:41:20.499Z,12.87
2022-10-17T16:43:47.850Z,12.75
2022-10-17T16:46:14.699Z,12.15
2022-10-17T16:48:42.803Z,12.48
2022-10-17T16:51:09.806Z,12.36
2022-10-17T16:53:39.999Z,12.13
2022-10-17T16:56:07.338Z,11.99
2022-10-17T16:58:34.008Z,11.95
2022-10-17T17:01:04.417Z,11.75
2022-10-17T17:03:34.556Z,11.67
2022-10-17T17:06:01.167Z,11.50
2022-10-17T17:08:27.695Z,11.35
2022-10-17T17:10:55.433Z,11.22
2022-10-17T17:13:22.096Z,11.12
2022-10-17T17:15:53.585Z,11.11
2022-10-17T17:18:20.951Z,11.05
2022-10-17T17:20:47.892Z,11.00
2022-10-17T17:23:16.010Z,10.91
2022-10-17T17:25:42.774Z,10.80
2022-10-17T17:28:09.445Z,10.32
2022-10-17T17:30:36.110Z,10.23
2022-10-17T17:33:02.722Z,9.93
2022-10-17T17:35:35.189Z,9.90
2022-10-17T17:38:03.099Z,9.83
2022-10-17T17:40:29.703Z,9.84
2022-10-17T17:42:56.343Z,9.89
2022-10-17T17:45:22.959Z,10.04
2022-10-17T17:47:49.559Z,9.80
2022-10-17T17:50:16.193Z,9.81
2022-10-17T17:52:45.562Z,9.55
2022-10-17T17:55:12.614Z,9.32
2022-10-17T17:57:41.508Z,9.25
2022-10-17T18:00:08.450Z,9.28
2022-10-17T18:02:36.968Z,9.11
2022-10-17T18:05:05.353Z,9.07
2022-10-17T18:07:31.953Z,9.08
2022-10-17T18:09:58.622Z,8.92
2022-10-17T18:12:25.341Z,8.82
2022-10-17T18:14:52.116Z,8.69
2022-10-17T18:17:18.851Z,8.61
2022-10-17T18:19:45.529Z,8.39
2022-10-17T18:22:12.160Z,8.32
2022-10-17T18:24:38.801Z,8.26
2022-10-17T18:27:05.375Z,8.36
2022-10-17T18:29:32.836Z,8.50
2022-10-17T18:31:59.907Z,8.24
2022-10-17T18:34:27.337Z,8.22
2022-10-17T18:36:54.527Z,8.15
2022-10-17T18:39:21.264Z,8.15
2022-10-17T18:41:47.876Z,8.04
2022-10-17T18:44:15.639Z,7.79
2022-10-17T18:46:43.336Z,7.69
2022-10-17T18:49:10.781Z,7.21
2022-10-17T18:51:37.394Z,7.58
2022-10-17T18:54:04.138Z,7.45
2022-10-17T18:56:31.180Z,7.53
2022-10-17T18:58:57.762Z,7.44
2022-10-17T19:01:25.666Z,7.41
2022-10-17T19:03:53.006Z,7.35
2022-10-17T19:06:21.848Z,7.31
2022-10-17T19:08:48.959Z,7.45
2022-10-17T19:11:25.521Z,7.11
2022-10-17T19:13:52.509Z,6.91
2022-10-17T19:16:23.577Z,7.00
2022-10-17T19:18:51.138Z,6.84
2022-10-17T19:21:21.693Z,6.79
2022-10-17T19:23:50.193Z,6.61
2022-10-17T19:26:17.035Z,6.66
2022-10-17T19:28:44.341Z,6.64
2022-10-17T19:31:16.838Z,6.65
2022-10-17T19:33:45.735Z,6.53
2022-10-17T19:36:13.204Z,6.46
2022-10-17T19:38:40.014Z,6.36
2022-10-17T19:41:07.679Z,6.32
2022-10-17T19:43:37.724Z,6.28
2022-10-17T19:46:05.648Z,6.24
2022-10-17T19:48:35.964Z,6.16
2022-10-17T19:51:03.048Z,6.09
2022-10-17T19:53:29.780Z,6.04
2022-10-17T19:55:57.115Z,6.11
2022-10-17T19:58:24.001Z,6.26
2022-10-17T20:00:52.747Z,6.14
2022-10-17T20:03:19.338Z,6.10
2022-10-17T20:05:46.297Z,6.13
2022-10-17T20:08:13.156Z,6.03
2022-10-17T20:10:39.982Z,5.69
2022-10-17T20:13:06.636Z,5.61
2022-10-17T20:15:33.308Z,5.62
2022-10-17T20:18:00.455Z,5.52
2022-10-17T20:20:27.059Z,5.34
2022-10-17T20:22:53.964Z,5.15
2022-10-17T20:25:20.654Z,5.23
2022-10-17T20:27:47.317Z,5.29
2022-10-17T20:30:14.376Z,5.29
2022-10-17T20:32:41.011Z,5.31
2022-10-17T20:35:08.290Z,5.31
2022-10-17T20:37:40.005Z,5.39
2022-10-17T20:42:56.300Z,5.29
2022-10-17T20:45:37.368Z,5.30
2022-10-17T20:48:13.076Z,5.32
2022-10-17T20:50:40.111Z,5.37
2022-10-17T20:53:31.766Z,5.41
2022-10-17T20:56:05.902Z,5.40
2022-10-17T20:58:34.105Z,5.41
2022-10-17T21:01:07.871Z,5.41
2022-10-17T21:03:35.178Z,5.34
2022-10-17T21:06:01.904Z,5.32
2022-10-17T21:08:28.470Z,5.24
2022-10-17T21:10:55.178Z,5.29
2022-10-17T21:13:21.774Z,5.03
2022-10-17T21:15:48.299Z,4.99
2022-10-17T21:18:14.859Z,4.91
2022-10-17T21:20:41.429Z,4.29
2022-10-17T21:23:08.011Z,4.83
2022-10-17T21:25:34.644Z,4.81
2022-10-17T21:28:01.491Z,4.91
2022-10-17T21:30:28.452Z,4.72
2022-10-17T21:32:55.557Z,4.68
2022-10-17T21:35:22.637Z,4.66
2022-10-17T21:37:49.250Z,4.67
2022-10-17T21:40:15.955Z,4.70
2022-10-17T21:42:42.620Z,4.65
2022-10-17T21:45:15.140Z,4.73
2022-10-17T21:47:54.887Z,4.85
2022-10-17T21:50:29.514Z,4.78
2022-10-17T21:52:57.746Z,4.83
2022-10-17T21:55:24.362Z,4.84
2022-10-17T21:57:51.536Z,4.85
2022-10-17T22:00:18.342Z,4.90
2022-10-17T22:02:44.882Z,4.94
2022-10-17T22:05:11.558Z,4.99
2022-10-17T22:07:38.094Z,4.94
2022-10-17T22:10:04.875Z,4.89
2022-10-17T22:12:31.653Z,4.85
2022-10-17T22:14:58.384Z,4.63
2022-10-17T22:17:24.986Z,4.60
2022-10-17T22:19:51.633Z,4.62
2022-10-17T22:22:18.231Z,4.60
2022-10-17T22:24:44.780Z,4.58
2022-10-17T22:27:11.454Z,4.63
2022-10-17T22:29:39.663Z,4.55
2022-10-17T22:32:06.255Z,4.54
2022-10-17T22:34:32.848Z,4.52
2022-10-17T22:36:59.446Z,4.45
2022-10-17T22:39:26.052Z,4.45
2022-10-17T22:41:52.657Z,4.30
2022-10-17T22:44:19.287Z,4.27
2022-10-17T22:46:45.819Z,4.14
2022-10-17T22:49:12.466Z,3.83
2022-10-17T22:51:39.106Z,4.06
2022-10-17T22:54:06.217Z,4.25
2022-10-17T22:56:33.641Z,4.13
2022-10-17T22:59:01.281Z,4.05
2022-10-17T23:01:27.931Z,3.97
2022-10-17T23:03:54.529Z,3.85
2022-10-17T23:06:21.182Z,3.84
2022-10-17T23:08:48.198Z,3.75
2022-10-17T23:11:15.142Z,3.80
2022-10-17T23:13:41.893Z,3.92
2022-10-17T23:16:08.989Z,3.94
2022-10-17T23:18:36.736Z,3.98
2022-10-17T23:21:03.419Z,3.69
2022-10-17T23:23:29.961Z,3.82
2022-10-17T23:26:02.939Z,3.90
2022-10-17T23:28:30.109Z,4.02
2022-10-17T23:30:56.763Z,4.02
2022-10-17T23:33:23.414Z,3.96
2022-10-17T23:35:50.012Z,3.80
2022-10-17T23:38:16.612Z,3.63
2022-10-17T23:40:43.248Z,3.68
2022-10-17T23:43:09.787Z,3.70
2022-10-17T23:45:37.134Z,3.58
2022-10-17T23:48:04.793Z,3.48
2022-10-17T23:50:31.377Z,3.50
2022-10-17T23:52:58.020Z,3.33
2022-10-17T23:55:24.750Z,3.24
2022-10-17T23:57:51.292Z,3.20
